Time;durP1;ratioP1;P1;durP2;ratioP2;P2;SDS_P1;SDS_P2;PMS_P1;PMS_P2;Temp;Humidity;BMP_temperature;BMP_pressure;BME280_temperature;BME280_humidity;BME280_pressure;Samples;Min_cycle;Max_cycle;Signal;HPM_P1;HPM_P2
2022/03/23 00:00:04;;;;;;;;;;;21.00;25.40;;;;;;5145410;27;20181;-51
2022/03/23 00:02:30;;;;;;;;;;;21.20;25.20;;;;;;5145578;27;19930;-58
2022/03/23 00:04:56;;;;;;;;;;;21.10;25.30;;;;;;5150125;27;19948;-52
2022/03/23 00:07:22;;;;;;;;;;;21.20;25.30;;;;;;5140789;27;20017;-57
2022/03/23 00:09:48;;;;;;;;;;;21.20;25.30;;;;;;5150380;27;19930;-54
2022/03/23 00:12:14;;;;;;;;;;;21.20;25.40;;;;;;5144982;27;20393;-60
2022/03/23 00:14:40;;;;;;;;;;;21.20;25.50;;;;;;5144853;27;19927;-60
2022/03/23 00:17:05;;;;;;;;;;;21.10;25.50;;;;;;5150373;27;19926;-58
2022/03/23 00:19:31;;;;;;;;;;;21.00;25.80;;;;;;5144882;27;19931;-53
2022/03/23 00:21:57;;;;;;;;;;;21.20;25.40;;;;;;5144618;27;19924;-59
2022/03/23 00:24:23;;;;;;;;;;;21.10;25.30;;;;;;5148568;27;19948;-54
2022/03/23 00:26:49;;;;;;;;;;;21.20;25.10;;;;;;5142022;27;19923;-56
2022/03/23 00:29:15;;;;;;;;;;;21.10;25.20;;;;;;5150265;27;19922;-56
2022/03/23 00:31:40;;;;;;;;;;;21.20;25.00;;;;;;5126360;27;19980;-59
2022/03/23 00:34:06;;;;;;;;;;;20.90;25.30;;;;;;5144581;27;19973;-60
2022/03/23 00:36:32;;;;;;;;;;;21.20;24.80;;;;;;5149907;27;19923;-59
2022/03/23 00:38:58;;;;;;;;;;;21.10;24.90;;;;;;5144547;27;20357;-56
2022/03/23 00:41:24;;;;;;;;;;;21.20;24.70;;;;;;5144508;27;19923;-60
2022/03/23 00:43:49;;;;;;;;;;;21.10;24.80;;;;;;5145825;27;19924;-53
2022/03/23 00:46:15;;;;;;;;;;;21.10;24.60;;;;;;5143031;27;20388;-60
2022/03/23 00:48:42;;;;;;;;;;;21.20;24.50;;;;;;5149826;27;20013;-58
2022/03/23 00:51:08;;;;;;;;;;;20.90;24.60;;;;;;5144306;27;20067;-56
2022/03/23 00:53:34;;;;;;;;;;;21.20;24.20;;;;;;5144389;27;20588;-59
2022/03/23 00:56:00;;;;;;;;;;;21.10;24.30;;;;;;5149422;27;19923;-57
2022/03/23 00:58:26;;;;;;;;;;;21.20;24.20;;;;;;5144307;27;20381;-58
2022/03/23 01:00:51;;;;;;;;;;;21.10;24.30;;;;;;5143046;27;20079;-52
2022/03/23 01:03:18;;;;;;;;;;;21.30;24.00;;;;;;5146038;27;19964;-59
2022/03/23 01:05:44;;;;;;;;;;;21.00;24.30;;;;;;5144011;27;19941;-61
2022/03/23 01:08:09;;;;;;;;;;;21.20;24.00;;;;;;5148700;27;19923;-53
2022/03/23 01:10:36;;;;;;;;;;;21.00;24.00;;;;;;5145379;27;19969;-60
2022/03/23 01:13:02;;;;;;;;;;;21.10;23.80;;;;;;5143829;27;19931;-58
2022/03/23 01:15:29;;;;;;;;;;;21.10;23.80;;;;;;5149146;27;19926;-60
2022/03/23 01:17:55;;;;;;;;;;;21.10;23.80;;;;;;5143720;27;19927;-52
2022/03/23 01:20:21;;;;;;;;;;;21.20;23.50;;;;;;5140309;27;19934;-58
2022/03/23 01:22:47;;;;;;;;;;;21.10;23.60;;;;;;5147280;27;19967;-56
2022/03/23 01:25:13;;;;;;;;;;;21.10;23.70;;;;;;5143668;27;20009;-60
2022/03/23 01:27:39;;;;;;;;;;;21.20;23.60;;;;;;5145247;27;19930;-50
2022/03/23 01:30:05;;;;;;;;;;;21.10;23.70;;;;;;5148448;27;19993;-50
2022/03/23 01:32:31;;;;;;;;;;;21.20;23.70;;;;;;5143626;27;19923;-59
2022/03/23 01:34:57;;;;;;;;;;;20.90;24.20;;;;;;5148768;27;19927;-60
2022/03/23 01:37:23;;;;;;;;;;;21.10;24.00;;;;;;5124324;27;19931;-56
2022/03/23 01:39:49;;;;;;;;;;;21.10;24.10;;;;;;5138732;27;19927;-53
2022/03/23 01:42:15;;;;;;;;;;;21.20;24.10;;;;;;5148663;27;19931;-57
2022/03/23 01:44:41;;;;;;;;;;;21.00;24.40;;;;;;5143141;27;19972;-54
2022/03/23 01:47:07;;;;;;;;;;;21.20;24.10;;;;;;5143091;27;19923;-60
2022/03/23 01:49:34;;;;;;;;;;;21.10;24.10;;;;;;5148694;27;19923;-55
2022/03/23 01:52:00;;;;;;;;;;;21.20;24.10;;;;;;5143410;27;19946;-57
2022/03/23 01:54:25;;;;;;;;;;;21.10;24.30;;;;;;5148470;27;19979;-50
2022/03/23 01:56:51;;;;;;;;;;;21.10;24.30;;;;;;5140785;27;19934;-57
2022/03/23 01:59:17;;;;;;;;;;;21.20;24.30;;;;;;5139224;27;20370;-59
2022/03/23 02:01:43;;;;;;;;;;;21.10;24.30;;;;;;5148484;27;19934;-53
2022/03/23 02:04:09;;;;;;;;;;;21.30;24.10;;;;;;5143216;27;20023;-60
2022/03/23 02:06:35;;;;;;;;;;;21.10;24.30;;;;;;5142785;27;20002;-51
2022/03/23 02:09:01;;;;;;;;;;;21.20;24.10;;;;;;5148556;27;19926;-57
2022/03/23 02:11:27;;;;;;;;;;;21.00;24.30;;;;;;5142866;27;20332;-52
2022/03/23 02:13:53;;;;;;;;;;;21.20;24.00;;;;;;5148187;27;19929;-58
2022/03/23 02:16:19;;;;;;;;;;;20.90;24.30;;;;;;5138386;27;19940;-58
2022/03/23 02:18:46;;;;;;;;;;;21.20;23.90;;;;;;5141878;27;19922;-58
2022/03/23 02:21:14;;;;;;;;;;;21.20;23.80;;;;;;5148206;27;19923;-59
2022/03/23 02:23:40;;;;;;;;;;;21.10;23.80;;;;;;5142725;27;19923;-56
2022/03/23 02:26:06;;;;;;;;;;;21.20;23.70;;;;;;5143359;27;20266;-58
2022/03/23 02:28:32;;;;;;;;;;;20.90;23.60;;;;;;5147875;27;20385;-60
2022/03/23 02:30:58;;;;;;;;;;;21.10;23.30;;;;;;5142586;27;19927;-56
2022/03/23 02:33:24;;;;;;;;;;;21.00;23.30;;;;;;5143481;27;19926;-58
2022/03/23 02:35:49;;;;;;;;;;;21.10;23.30;;;;;;5141897;27;19923;-59
2022/03/23 02:38:16;;;;;;;;;;;20.90;23.50;;;;;;5142439;27;19923;-59
2022/03/23 02:40:42;;;;;;;;;;;21.00;23.40;;;;;;5147782;27;19923;-52
2022/03/23 02:43:08;;;;;;;;;;;21.10;23.20;;;;;;5142430;27;19923;-58
2022/03/23 02:45:34;;;;;;;;;;;21.20;23.10;;;;;;5143091;27;19923;-58
2022/03/23 02:48:00;;;;;;;;;;;21.00;23.30;;;;;;5147831;27;20439;-59
2022/03/23 02:50:26;;;;;;;;;;;21.20;23.10;;;;;;5142151;27;20294;-58
2022/03/23 03:03:53;;;;;;;;;;;21.10;22.80;;;;;;5147462;27;20270;-58
2022/03/23 03:06:18;;;;;;;;;;;21.20;22.80;;;;;;5142003;27;20014;-53
2022/03/23 03:08:48;;;;;;;;;;;21.10;22.70;;;;;;5142099;27;19957;-57
2022/03/23 03:11:14;;;;;;;;;;;21.20;22.80;;;;;;5148851;27;19981;-57
2022/03/23 03:13:40;;;;;;;;;;;20.90;23.00;;;;;;5125674;27;20014;-59
2022/03/23 03:16:06;;;;;;;;;;;21.10;22.80;;;;;;5146180;27;19975;-58
2022/03/23 03:18:32;;;;;;;;;;;21.20;22.80;;;;;;5133126;27;20358;-60
2022/03/23 03:20:58;;;;;;;;;;;21.20;22.80;;;;;;5127717;27;19948;-54
2022/03/23 03:23:25;;;;;;;;;;;21.10;22.90;;;;;;5151793;27;19931;-58
2022/03/23 03:25:51;;;;;;;;;;;21.20;22.80;;;;;;5146220;27;19927;-58
2022/03/23 03:28:17;;;;;;;;;;;21.00;22.90;;;;;;5145489;27;20418;-59
2022/03/23 03:30:43;;;;;;;;;;;21.20;22.80;;;;;;5146932;27;19923;-59
2022/03/23 03:33:08;;;;;;;;;;;21.00;22.80;;;;;;5145746;27;20430;-58
2022/03/23 03:35:34;;;;;;;;;;;21.10;22.80;;;;;;5145824;27;19962;-53
2022/03/23 03:38:00;;;;;;;;;;;21.20;22.70;;;;;;5151262;27;19923;-58
2022/03/23 03:40:26;;;;;;;;;;;21.00;22.90;;;;;;5145798;27;19923;-58
2022/03/23 03:42:51;;;;;;;;;;;21.20;22.70;;;;;;5151341;27;19927;-58
2022/03/23 03:45:17;;;;;;;;;;;20.90;23.00;;;;;;5145720;27;20404;-58
2022/03/23 03:47:44;;;;;;;;;;;21.10;22.90;;;;;;5143853;27;20309;-58
2022/03/23 03:50:10;;;;;;;;;;;21.20;22.90;;;;;;5147699;27;20335;-59
2022/03/23 03:52:36;;;;;;;;;;;21.20;22.90;;;;;;5145701;27;19935;-53
2022/03/23 03:55:02;;;;;;;;;;;21.00;23.00;;;;;;5126855;27;19991;-60
2022/03/23 03:57:27;;;;;;;;;;;21.10;23.00;;;;;;5150844;27;19923;-57
2022/03/23 03:59:53;;;;;;;;;;;21.20;22.80;;;;;;5145105;27;19930;-61
2022/03/23 04:02:19;;;;;;;;;;;21.20;22.80;;;;;;5150420;27;19972;-59
2022/03/23 04:04:45;;;;;;;;;;;21.10;22.70;;;;;;5145811;27;19930;-59
2022/03/23 04:07:10;;;;;;;;;;;21.10;22.70;;;;;;5141484;27;19933;-53
2022/03/23 04:09:36;;;;;;;;;;;21.20;22.60;;;;;;5149719;27;19946;-57
2022/03/23 04:12:02;;;;;;;;;;;21.10;22.70;;;;;;5145022;27;19924;-58
2022/03/23 04:14:28;;;;;;;;;;;21.10;22.60;;;;;;5144885;27;19923;-58
2022/03/23 04:16:54;;;;;;;;;;;21.30;22.60;;;;;;5150448;27;19927;-58
2022/03/23 04:19:20;;;;;;;;;;;21.20;22.60;;;;;;5145325;27;20512;-59
2022/03/23 04:21:46;;;;;;;;;;;21.10;22.70;;;;;;5146588;27;19927;-59
2022/03/23 04:24:12;;;;;;;;;;;21.30;22.50;;;;;;5147288;27;19930;-59
2022/03/23 04:26:38;;;;;;;;;;;21.00;22.80;;;;;;5140788;27;19925;-60
2022/03/23 04:29:03;;;;;;;;;;;21.20;22.60;;;;;;5150683;27;20282;-54
2022/03/23 04:31:29;;;;;;;;;;;21.20;22.60;;;;;;5126140;27;19930;-59
2022/03/23 04:33:55;;;;;;;;;;;21.10;22.70;;;;;;5144672;27;19939;-59
2022/03/23 04:36:21;;;;;;;;;;;21.20;22.60;;;;;;5131499;27;19930;-61
2022/03/23 04:38:46;;;;;;;;;;;21.00;22.80;;;;;;5144572;27;19923;-51
2022/03/23 04:41:12;;;;;;;;;;;21.20;22.60;;;;;;5145045;27;19923;-58
2022/03/23 04:43:38;;;;;;;;;;;21.00;22.80;;;;;;5146847;27;20053;-59
2022/03/23 04:46:05;;;;;;;;;;;21.20;22.60;;;;;;5142169;27;19971;-59
2022/03/23 04:48:31;;;;;;;;;;;21.10;22.70;;;;;;5149814;27;19992;-59
2022/03/23 04:50:57;;;;;;;;;;;21.10;22.60;;;;;;5144405;27;20033;-58
2022/03/23 04:53:22;;;;;;;;;;;21.20;22.60;;;;;;5144345;27;19940;-59
2022/03/23 04:55:48;;;;;;;;;;;21.20;22.60;;;;;;5131152;27;20366;-53
2022/03/23 04:58:14;;;;;;;;;;;21.20;22.60;;;;;;5144210;27;19930;-60
2022/03/23 05:00:40;;;;;;;;;;;21.10;22.70;;;;;;5125584;27;19923;-60
2022/03/23 05:03:05;;;;;;;;;;;21.30;22.50;;;;;;5145425;27;20386;-58
2022/03/23 05:05:31;;;;;;;;;;;21.10;22.60;;;;;;5143763;27;19927;-59
2022/03/23 05:07:57;;;;;;;;;;;21.20;22.50;;;;;;5149383;27;19930;-59
2022/03/23 05:10:23;;;;;;;;;;;21.10;22.60;;;;;;5144103;27;19937;-58
2022/03/23 05:12:49;;;;;;;;;;;21.10;22.70;;;;;;5144029;27;19962;-52
2022/03/23 05:15:16;;;;;;;;;;;21.20;22.60;;;;;;5149332;27;19927;-57
2022/03/23 05:17:41;;;;;;;;;;;21.10;22.70;;;;;;5143811;27;20933;-59
2022/03/23 05:20:08;;;;;;;;;;;21.20;22.60;;;;;;5142304;27;19930;-58
2022/03/23 05:22:33;;;;;;;;;;;21.10;22.70;;;;;;5145405;27;20442;-58
2022/03/23 05:25:00;;;;;;;;;;;21.20;22.60;;;;;;5143980;27;19938;-50
2022/03/23 05:27:25;;;;;;;;;;;21.10;22.60;;;;;;5149400;27;19967;-58
2022/03/23 05:29:51;;;;;;;;;;;21.10;22.80;;;;;;5143618;27;19923;-59
2022/03/23 05:32:18;;;;;;;;;;;21.20;22.70;;;;;;5143567;27;19927;-58
2022/03/23 05:34:44;;;;;;;;;;;21.10;22.80;;;;;;5148818;27;20447;-58
2022/03/23 05:37:11;;;;;;;;;;;21.20;22.70;;;;;;5143297;27;19927;-59
2022/03/23 05:39:37;;;;;;;;;;;21.10;22.80;;;;;;5121562;27;19974;-59
2022/03/23 05:42:03;;;;;;;;;;;21.10;22.80;;;;;;5147542;27;19932;-58
2022/03/23 05:44:29;;;;;;;;;;;21.10;22.80;;;;;;5143174;27;19933;-59
2022/03/23 05:46:55;;;;;;;;;;;21.30;22.70;;;;;;5145903;27;19926;-58
2022/03/23 05:49:21;;;;;;;;;;;21.10;22.90;;;;;;5146192;27;20381;-58
2022/03/23 05:51:46;;;;;;;;;;;21.20;22.90;;;;;;5143146;27;19991;-52
2022/03/23 05:54:12;;;;;;;;;;;21.10;22.90;;;;;;5148616;27;19923;-60
2022/03/23 05:56:38;;;;;;;;;;;21.00;23.00;;;;;;5142167;27;20370;-60
2022/03/23 05:59:04;;;;;;;;;;;21.30;22.90;;;;;;5120079;27;20296;-57
2022/03/23 06:01:31;;;;;;;;;;;21.20;22.90;;;;;;5148342;27;19927;-59
2022/03/23 06:03:57;;;;;;;;;;;21.30;22.90;;;;;;5125076;27;20025;-59
2022/03/23 06:06:23;;;;;;;;;;;21.00;23.20;;;;;;5142731;27;19939;-57
2022/03/23 06:08:48;;;;;;;;;;;21.30;23.00;;;;;;5148314;27;19938;-59
2022/03/23 06:11:14;;;;;;;;;;;21.00;23.20;;;;;;5142953;27;19927;-59
2022/03/23 06:13:40;;;;;;;;;;;21.10;23.20;;;;;;5148470;27;19970;-59
2022/03/23 06:16:06;;;;;;;;;;;21.20;23.10;;;;;;5121586;27;19923;-57
2022/03/23 06:18:32;;;;;;;;;;;21.20;23.10;;;;;;5140052;27;19923;-59
2022/03/23 06:20:58;;;;;;;;;;;21.20;23.10;;;;;;5148162;27;20293;-58
2022/03/23 06:23:25;;;;;;;;;;;21.20;23.20;;;;;;5142660;27;19927;-58
2022/03/23 06:25:51;;;;;;;;;;;21.20;23.20;;;;;;5124055;27;20123;-59
2022/03/23 06:28:16;;;;;;;;;;;21.10;23.40;;;;;;5147970;27;19967;-58
2022/03/23 06:30:42;;;;;;;;;;;21.30;23.30;;;;;;5142665;27;19931;-60
2022/03/23 06:33:08;;;;;;;;;;;20.90;23.60;;;;;;5147665;27;19930;-59
2022/03/23 06:35:35;;;;;;;;;;;21.20;23.40;;;;;;5138242;27;19950;-51
2022/03/23 06:38:02;;;;;;;;;;;21.20;23.20;;;;;;5142000;27;20414;-59
2022/03/23 06:40:27;;;;;;;;;;;21.10;23.40;;;;;;5147925;27;19923;-58
2022/03/23 06:42:53;;;;;;;;;;;21.20;23.30;;;;;;5142298;27;20378;-59
2022/03/23 06:45:19;;;;;;;;;;;21.10;23.30;;;;;;5141860;27;20031;-57
2022/03/23 06:47:45;;;;;;;;;;;21.20;23.20;;;;;;5147868;27;20328;-60
2022/03/23 06:50:11;;;;;;;;;;;21.00;23.30;;;;;;5142251;27;20275;-58
2022/03/23 06:52:36;;;;;;;;;;;21.20;23.20;;;;;;5127791;27;19927;-58
2022/03/23 06:55:02;;;;;;;;;;;21.00;23.40;;;;;;5119952;27;19975;-59
2022/03/23 06:57:29;;;;;;;;;;;21.10;23.30;;;;;;5140289;27;19930;-54
2022/03/23 06:59:54;;;;;;;;;;;21.10;23.30;;;;;;5147672;27;20394;-58
2022/03/23 07:02:20;;;;;;;;;;;21.10;23.40;;;;;;5142161;27;19930;-59
2022/03/23 07:04:46;;;;;;;;;;;21.20;23.30;;;;;;5142308;27;19987;-60
2022/03/23 07:07:12;;;;;;;;;;;21.00;23.50;;;;;;5147396;27;19927;-59
2022/03/23 07:09:41;;;;;;;;;;;21.20;23.30;;;;;;5142043;27;19927;-59
2022/03/23 07:12:07;;;;;;;;;;;21.20;23.40;;;;;;5140398;27;19947;-57
2022/03/23 07:14:33;;;;;;;;;;;21.10;23.50;;;;;;5126274;27;20370;-60
2022/03/23 07:16:59;;;;;;;;;;;21.10;23.50;;;;;;5142109;27;19950;-57
2022/03/23 07:19:25;;;;;;;;;;;21.20;23.40;;;;;;5147770;27;19927;-59
2022/03/23 07:21:51;;;;;;;;;;;20.90;23.70;;;;;;5141826;27;19923;-60
2022/03/23 07:24:17;;;;;;;;;;;21.20;23.50;;;;;;5141945;27;19933;-57
2022/03/23 07:26:43;;;;;;;;;;;21.30;23.40;;;;;;5147469;27;19948;-55
2022/03/23 07:29:09;;;;;;;;;;;21.30;23.40;;;;;;5141424;27;19937;-57
2022/03/23 07:31:35;;;;;;;;;;;21.10;23.50;;;;;;5137292;27;20010;-57
2022/03/23 07:34:02;;;;;;;;;;;21.30;23.30;;;;;;5147400;27;20018;-60
2022/03/23 07:36:27;;;;;;;;;;;21.00;23.50;;;;;;5141815;27;19934;-56
2022/03/23 07:38:53;;;;;;;;;;;21.20;23.30;;;;;;5128948;27;20335;-58
2022/03/23 07:41:19;;;;;;;;;;;21.10;23.50;;;;;;5141746;27;19972;-53
2022/03/23 07:43:45;;;;;;;;;;;21.10;23.50;;;;;;5141802;27;19923;-59
2022/03/23 07:46:11;;;;;;;;;;;21.10;23.60;;;;;;5147432;27;20017;-59
2022/03/23 07:48:37;;;;;;;;;;;21.00;23.60;;;;;;5139346;27;19948;-59
2022/03/23 07:51:02;;;;;;;;;;;21.30;23.40;;;;;;5138939;27;20097;-60
2022/03/23 07:53:28;;;;;;;;;;;20.90;23.60;;;;;;5147112;27;20275;-51
2022/03/23 07:55:54;;;;;;;;;;;21.30;23.30;;;;;;5141996;27;19972;-58
2022/03/23 07:58:21;;;;;;;;;;;21.10;23.40;;;;;;5150839;27;20366;-54
2022/03/23 08:00:47;;;;;;;;;;;20.90;23.50;;;;;;5145561;27;20379;-58
2022/03/23 08:03:13;;;;;;;;;;;21.10;23.40;;;;;;5144943;27;19927;-54
2022/03/23 08:05:40;;;;;;;;;;;21.20;23.30;;;;;;5150440;27;20375;-58
2022/03/23 08:08:07;;;;;;;;;;;21.20;23.20;;;;;;5141771;27;20347;-59
2022/03/23 08:10:34;;;;;;;;;;;21.00;23.40;;;;;;5144593;27;20042;-55
2022/03/23 08:13:01;;;;;;;;;;;21.20;23.20;;;;;;5150550;27;22018;-60
2022/03/23 08:15:29;;;;;;;;;;;20.90;23.60;;;;;;5144844;27;19931;-60
2022/03/23 08:17:58;;;;;;;;;;;21.20;23.40;;;;;;5146861;27;19923;-58
2022/03/23 08:20:33;;;;;;;;;;;21.00;23.60;;;;;;5150477;27;19945;-58
2022/03/23 08:22:59;;;;;;;;;;;21.20;23.40;;;;;;5145038;27;19923;-57
2022/03/23 08:25:25;;;;;;;;;;;21.10;23.50;;;;;;5148060;27;19923;-58
2022/03/23 08:27:50;;;;;;;;;;;21.20;23.50;;;;;;5141541;27;19930;-60
2022/03/23 08:30:16;;;;;;;;;;;21.20;23.50;;;;;;5145523;27;19927;-58
2022/03/23 08:32:42;;;;;;;;;;;21.10;23.70;;;;;;5150406;27;19924;-57
2022/03/23 08:35:08;;;;;;;;;;;21.10;23.70;;;;;;5144680;27;19923;-52
2022/03/23 08:37:34;;;;;;;;;;;21.00;23.90;;;;;;5144636;27;19923;-49
2022/03/23 08:39:59;;;;;;;;;;;21.30;23.70;;;;;;5150055;27;19927;-59
2022/03/23 08:42:25;;;;;;;;;;;21.00;24.00;;;;;;5144686;27;19930;-56
2022/03/23 08:44:52;;;;;;;;;;;21.20;23.80;;;;;;5145870;27;19923;-59
2022/03/23 08:47:17;;;;;;;;;;;20.90;24.00;;;;;;5143678;27;19967;-56
2022/03/23 08:49:43;;;;;;;;;;;21.20;23.70;;;;;;5144564;27;19923;-58
2022/03/23 08:52:09;;;;;;;;;;;21.00;24.10;;;;;;5149978;27;19923;-60
2022/03/23 08:54:35;;;;;;;;;;;21.30;23.90;;;;;;5144275;27;19931;-60
2022/03/23 08:57:01;;;;;;;;;;;21.00;24.20;;;;;;5144716;27;20555;-58
2022/03/23 08:59:27;;;;;;;;;;;21.20;24.00;;;;;;5149649;27;19926;-58
2022/03/23 09:01:52;;;;;;;;;;;20.90;24.40;;;;;;5142990;27;19923;-57
2022/03/23 09:04:18;;;;;;;;;;;21.30;24.00;;;;;;5142965;27;20438;-57
2022/03/23 09:06:44;;;;;;;;;;;21.00;24.20;;;;;;5146445;27;20370;-58
2022/03/23 09:09:10;;;;;;;;;;;21.20;24.10;;;;;;5144594;27;20389;-59
2022/03/23 09:11:35;;;;;;;;;;;21.00;24.50;;;;;;5149318;27;20848;-59
2022/03/23 09:14:01;;;;;;;;;;;21.20;24.20;;;;;;5143883;27;19927;-59
2022/03/23 09:16:27;;;;;;;;;;;21.00;24.50;;;;;;5143664;27;20064;-61
2022/03/23 09:18:53;;;;;;;;;;;21.20;24.30;;;;;;5149164;27;20401;-59
2022/03/23 09:21:19;;;;;;;;;;;21.10;24.70;;;;;;5140836;27;20296;-58
2022/03/23 09:23:45;;;;;;;;;;;21.10;24.60;;;;;;5142690;27;20017;-59
2022/03/23 09:26:11;;;;;;;;;;;21.10;24.80;;;;;;5148667;27;19927;-59
2022/03/23 09:28:37;;;;;;;;;;;21.10;24.80;;;;;;5125116;27;19923;-51
2022/03/23 09:31:03;;;;;;;;;;;21.20;24.70;;;;;;5149002;27;19943;-58
2022/03/23 09:33:29;;;;;;;;;;;21.00;25.00;;;;;;5143471;27;20332;-60
2022/03/23 09:35:55;;;;;;;;;;;21.20;24.80;;;;;;5143443;27;20015;-59
2022/03/23 09:38:21;;;;;;;;;;;21.00;25.00;;;;;;5148507;27;19927;-60
2022/03/23 09:40:47;;;;;;;;;;;21.30;24.70;;;;;;5138991;27;19997;-55
2022/03/23 09:43:12;;;;;;;;;;;21.00;25.10;;;;;;5124720;27;19930;-59
2022/03/23 09:48:11;;;;;;;;;;;21.00;25.00;;;;;;5143418;27;19929;-55
2022/03/23 09:50:38;;;;;;;;;;;21.30;24.70;;;;;;5148807;27;20043;-59
2022/03/23 09:53:04;;;;;;;;;;;21.00;24.60;;;;;;5143520;27;19936;-60
2022/03/23 09:55:30;;;;;;;;;;;21.30;24.40;;;;;;5142977;27;20327;-52
2022/03/23 09:57:56;;;;;;;;;;;21.10;24.10;;;;;;5127561;27;19950;-60
2022/03/23 10:00:22;;;;;;;;;;;21.20;23.70;;;;;;5140266;27;19991;-54
2022/03/23 10:02:57;;;;;;;;;;;21.20;23.70;;;;;;5142988;27;20469;-60
2022/03/23 10:05:22;;;;;;;;;;;21.20;23.70;;;;;;5148401;27;19923;-56
2022/03/23 10:08:13;;;;;;;;;;;21.30;23.50;;;;;;5142945;27;19975;-59
2022/03/23 10:10:58;;;;;;;;;;;21.10;23.40;;;;;;5143096;27;20344;-60
2022/03/23 10:13:42;;;;;;;;;;;21.30;22.80;;;;;;5148357;27;20018;-59
2022/03/23 10:16:27;;;;;;;;;;;21.10;22.40;;;;;;5140769;27;19922;-56
2022/03/23 10:18:53;;;;;;;;;;;21.10;22.30;;;;;;5139365;27;20327;-56
2022/03/23 10:21:20;;;;;;;;;;;21.20;21.90;;;;;;5148191;27;20013;-59
2022/03/23 10:23:58;;;;;;;;;;;21.20;21.30;;;;;;5142922;27;19923;-57
2022/03/23 10:26:24;;;;;;;;;;;21.10;21.60;;;;;;5142609;27;19933;-59
2022/03/23 10:28:49;;;;;;;;;;;21.30;21.10;;;;;;5148207;27;20382;-58
2022/03/23 10:31:16;;;;;;;;;;;21.00;21.30;;;;;;5142592;27;19934;-60
2022/03/23 10:33:42;;;;;;;;;;;21.30;20.50;;;;;;5142365;27;20525;-54
2022/03/23 10:36:08;;;;;;;;;;;21.10;20.40;;;;;;5143231;27;19930;-61
2022/03/23 10:38:43;;;;;;;;;;;21.20;20.20;;;;;;5142295;27;20377;-58
2022/03/23 10:41:10;;;;;;;;;;;21.10;20.40;;;;;;5143960;27;20442;-57
2022/03/23 10:43:36;;;;;;;;;;;21.20;20.40;;;;;;5147473;27;19923;-60
2022/03/23 10:46:11;;;;;;;;;;;21.10;20.40;;;;;;5142456;27;19923;-58
2022/03/23 10:48:48;;;;;;;;;;;21.20;20.30;;;;;;5148237;27;20006;-57
2022/03/23 10:51:14;;;;;;;;;;;21.20;20.30;;;;;;5144319;27;19923;-59
2022/03/23 10:53:41;;;;;;;;;;;21.20;20.50;;;;;;5120654;27;19968;-54
2022/03/23 10:56:07;;;;;;;;;;;21.20;20.70;;;;;;5145517;27;20421;-60
2022/03/23 10:58:34;;;;;;;;;;;21.20;20.60;;;;;;5142630;27;19927;-58
2022/03/23 11:01:01;;;;;;;;;;;21.20;20.60;;;;;;5142358;27;19927;-60
2022/03/23 11:03:53;;;;;;;;;;;21.10;20.50;;;;;;5148064;27;19971;-57
2022/03/23 11:06:25;;;;;;;;;;;21.00;20.60;;;;;;5137273;27;19923;-61
2022/03/23 11:08:51;;;;;;;;;;;21.30;20.30;;;;;;5142085;27;19968;-59
2022/03/23 11:16:37;;;;;;;;;;;21.10;20.10;;;;;;5142240;27;19923;-59
2022/03/23 11:19:08;;;;;;;;;;;21.30;20.10;;;;;;5147726;27;20022;-58
2022/03/23 11:21:36;;;;;;;;;;;21.10;20.20;;;;;;5142019;27;19975;-60
2022/03/23 11:24:02;;;;;;;;;;;21.20;20.20;;;;;;5123825;27;20021;-59
2022/03/23 11:26:28;;;;;;;;;;;21.20;20.10;;;;;;5147337;27;19952;-61
2022/03/23 11:28:54;;;;;;;;;;;21.20;20.00;;;;;;5122950;27;19971;-58
2022/03/23 11:31:20;;;;;;;;;;;21.10;20.00;;;;;;5126479;27;19927;-56
2022/03/23 11:33:49;;;;;;;;;;;21.30;20.00;;;;;;5146499;27;19934;-56
2022/03/23 11:36:16;;;;;;;;;;;21.20;19.90;;;;;;5146281;27;19922;-58
2022/03/23 11:38:41;;;;;;;;;;;21.20;19.30;;;;;;5151437;27;19971;-59
2022/03/23 11:41:08;;;;;;;;;;;21.20;19.00;;;;;;5146085;27;20363;-60
2022/03/23 11:43:34;;;;;;;;;;;21.10;19.20;;;;;;5146035;27;19934;-51
2022/03/23 11:46:00;;;;;;;;;;;21.20;19.10;;;;;;5151210;27;20009;-60
2022/03/23 11:48:26;;;;;;;;;;;21.30;19.20;;;;;;5143950;27;20017;-59
2022/03/23 11:50:56;;;;;;;;;;;21.20;19.40;;;;;;5142098;27;19931;-56
2022/03/23 11:53:42;;;;;;;;;;;21.30;19.60;;;;;;5151130;27;19935;-58
2022/03/23 11:56:08;;;;;;;;;;;21.20;19.30;;;;;;5132455;27;19929;-60
2022/03/23 11:58:35;;;;;;;;;;;21.30;19.30;;;;;;5146777;27;19923;-55
2022/03/23 12:01:08;;;;;;;;;;;21.30;19.00;;;;;;5150360;27;20063;-60
2022/03/23 12:03:50;;;;;;;;;;;21.20;18.60;;;;;;5145563;27;19929;-61
2022/03/23 12:06:43;;;;;;;;;;;21.30;18.50;;;;;;5147209;27;19927;-59
2022/03/23 12:09:08;;;;;;;;;;;21.30;18.50;;;;;;5140942;27;20100;-58
2022/03/23 12:11:43;;;;;;;;;;;21.30;18.40;;;;;;5126644;27;19927;-58
2022/03/23 12:14:22;;;;;;;;;;;21.30;18.20;;;;;;5145130;27;20402;-62
2022/03/23 12:16:51;;;;;;;;;;;21.30;18.00;;;;;;5150409;27;20313;-58
2022/03/23 12:19:17;;;;;;;;;;;21.30;18.00;;;;;;5145289;27;20041;-51
2022/03/23 12:21:45;;;;;;;;;;;21.00;18.00;;;;;;5148577;27;19923;-56
2022/03/23 12:24:19;;;;;;;;;;;20.10;19.00;;;;;;5148405;27;19927;-49
2022/03/23 12:26:46;;;;;;;;;;;19.40;19.50;;;;;;5140513;27;19927;-49
2022/03/23 12:29:15;;;;;;;;;;;20.20;19.00;;;;;;5149793;27;19983;-50
2022/03/23 12:31:41;;;;;;;;;;;21.10;18.10;;;;;;5145432;27;19927;-49
2022/03/23 12:34:13;;;;;;;;;;;19.90;19.10;;;;;;5144833;27;19970;-46
2022/03/23 12:39:25;;;;;;;;;;;21.10;18.40;;;;;;5145455;27;20010;-55
2022/03/23 12:41:51;;;;;;;;;;;20.60;18.80;;;;;;5144208;27;19943;-46
2022/03/23 12:44:19;;;;;;;;;;;19.90;19.70;;;;;;5147113;27;20370;-53
2022/03/23 12:46:45;;;;;;;;;;;21.20;18.50;;;;;;5142879;27;19932;-49
2022/03/23 12:57:50;;;;;;;;;;;21.30;18.00;;;;;;5130185;27;19934;-46
2022/03/23 13:00:25;;;;;;;;;;;19.80;19.50;;;;;;5149832;27;20022;-45
2022/03/23 13:03:06;;;;;;;;;;;20.30;19.30;;;;;;5144116;27;19923;-53
2022/03/23 13:05:33;;;;;;;;;;;21.30;18.60;;;;;;5143480;27;20288;-47
2022/03/23 13:07:58;;;;;;;;;;;19.90;20.20;;;;;;5149993;27;19971;-46
2022/03/23 13:10:24;;;;;;;;;;;20.10;20.40;;;;;;5144103;27;20369;-48
2022/03/23 13:12:50;;;;;;;;;;;21.30;19.20;;;;;;5145022;27;20372;-51
2022/03/23 13:15:17;;;;;;;;;;;20.60;19.40;;;;;;5150570;27;19934;-47
2022/03/23 13:17:43;;;;;;;;;;;19.60;20.10;;;;;;5144019;27;19923;-49
2022/03/23 13:20:10;;;;;;;;;;;20.60;19.20;;;;;;5143744;27;19935;-52
2022/03/23 13:22:38;;;;;;;;;;;21.30;18.50;;;;;;5145250;27;19930;-45
2022/03/23 13:25:05;;;;;;;;;;;20.00;19.60;;;;;;5144168;27;19922;-46
2022/03/23 13:27:30;;;;;;;;;;;20.30;19.60;;;;;;5147259;27;20009;-56
2022/03/23 13:30:00;;;;;;;;;;;21.30;18.60;;;;;;5147104;27;20038;-48
2022/03/23 13:32:39;;;;;;;;;;;20.30;18.90;;;;;;5144217;27;19923;-46
2022/03/23 13:35:13;;;;;;;;;;;20.20;19.00;;;;;;5149016;27;19931;-50
2022/03/23 13:37:51;;;;;;;;;;;21.30;18.10;;;;;;5145951;27;19956;-51
2022/03/23 13:40:20;;;;;;;;;;;20.00;18.90;;;;;;5139745;27;19931;-49
2022/03/23 13:45:31;;;;;;;;;;;21.30;17.80;;;;;;5148892;27;20353;-50
2022/03/23 13:47:57;;;;;;;;;;;19.90;19.20;;;;;;5144532;27;19923;-48
2022/03/23 13:50:24;;;;;;;;;;;19.50;19.90;;;;;;5148787;27;19923;-47
2022/03/23 13:52:49;;;;;;;;;;;21.00;18.70;;;;;;5125212;27;19977;-47
2022/03/23 13:55:16;;;;;;;;;;;21.10;18.70;;;;;;5143861;27;20285;-45
2022/03/23 13:57:42;;;;;;;;;;;19.70;20.20;;;;;;5146827;27;20369;-48
2022/03/23 14:00:24;;;;;;;;;;;20.30;19.50;;;;;;5139215;27;19927;-50
2022/03/23 14:02:51;;;;;;;;;;;21.30;18.50;;;;;;5144005;27;19929;-46
2022/03/23 14:05:17;;;;;;;;;;;20.20;19.60;;;;;;5130515;27;19923;-48
2022/03/23 14:07:44;;;;;;;;;;;20.00;19.60;;;;;;5143023;27;19948;-47
2022/03/23 14:10:10;;;;;;;;;;;21.30;18.40;;;;;;5145411;27;19937;-58
2022/03/23 14:12:36;;;;;;;;;;;20.50;19.00;;;;;;5148358;27;20366;-47
2022/03/23 14:15:02;;;;;;;;;;;19.50;20.20;;;;;;5142348;27;19974;-46
2022/03/23 14:17:31;;;;;;;;;;;20.90;19.10;;;;;;5144052;27;19984;-51
2022/03/23 14:19:58;;;;;;;;;;;21.30;18.70;;;;;;5143232;27;20374;-47
2022/03/23 14:22:25;;;;;;;;;;;19.80;20.00;;;;;;5143377;27;19923;-46
2022/03/23 14:24:51;;;;;;;;;;;19.60;20.20;;;;;;5148021;27;19931;-46
2022/03/23 14:27:19;;;;;;;;;;;21.10;18.70;;;;;;5143137;27;19943;-49
2022/03/23 14:32:29;;;;;;;;;;;19.70;20.20;;;;;;5148186;27;19933;-48
2022/03/23 14:34:55;;;;;;;;;;;20.80;19.10;;;;;;5140591;27;19945;-55
2022/03/23 14:37:20;;;;;;;;;;;21.50;18.50;;;;;;5140557;27;19966;-47
2022/03/23 14:39:47;;;;;;;;;;;19.80;20.20;;;;;;5148366;27;19978;-48
2022/03/23 14:42:13;;;;;;;;;;;19.60;20.50;;;;;;5142315;27;19986;-46
2022/03/23 14:44:44;;;;;;;;;;;21.10;19.20;;;;;;5148986;27;19927;-47
2022/03/23 14:47:10;;;;;;;;;;;21.00;19.20;;;;;;5143453;27;19926;-45
2022/03/23 14:49:37;;;;;;;;;;;19.70;20.50;;;;;;5124104;27;19940;-46